Moores Creek National Battle, North Carolina
Current Conditions -  °F | °C
As of 9:53 PM on Friday 19 Dec 2014 (Local Time) from KILM Reporting Station
Clear Clear  
Wind Chill: 41°   Ceiling: Unl
Heat Index: 44°   Visibility: 10mi
Dew Point: 34°   Wind: 6mph
Humidity: 68%   Direction: 50°NE
Pressure: 30.19"   Gusts: NA
Location:  34.4336°N, 78.0678°W
Report Text: KILM 200253Z 05005KT 10SM CLR 07/01 A3019 RMK AO2 SLP223 T00670011 51010
Loading
Personal Weather Stations






























Interactive Weather Map New forecast layout! Learn more

10-Day Weather Forecast

Advertisements
Track Severe Weather on mobile